createdAt,value
2022-11-06T00:00:29.677Z,9.53
2022-11-06T00:02:57.651Z,10.43
2022-11-06T00:05:26.152Z,8.87
2022-11-06T00:07:53.321Z,9.30
2022-11-06T00:10:20.511Z,8.53
2022-11-06T00:12:47.597Z,8.90
2022-11-06T00:15:14.905Z,9.30
2022-11-06T00:17:42.087Z,10.80
2022-11-06T00:20:09.591Z,11.37
2022-11-06T00:22:38.019Z,9.87
2022-11-06T00:25:05.531Z,9.60
2022-11-06T00:27:32.592Z,10.17
2022-11-06T00:29:59.679Z,10.20
2022-11-06T00:32:26.753Z,10.27
2022-11-06T00:34:53.852Z,9.90
2022-11-06T00:37:20.966Z,9.53
2022-11-06T00:39:49.451Z,8.97
2022-11-06T00:42:16.573Z,9.13
2022-11-06T00:44:43.622Z,9.57
2022-11-06T00:47:10.695Z,8.93
2022-11-06T00:49:37.960Z,9.00
2022-11-06T00:52:05.237Z,9.80
2022-11-06T00:54:32.294Z,9.70
2022-11-06T00:57:00.739Z,8.77
2022-11-06T00:59:27.818Z,8.87
2022-11-06T01:01:55.095Z,9.17
2022-11-06T01:04:23.231Z,8.00
2022-11-06T01:06:52.350Z,8.07
2022-11-06T01:09:20.791Z,8.73
2022-11-06T01:14:39.189Z,8.47
2022-11-06T01:17:06.301Z,9.60
2022-11-06T01:19:33.366Z,7.60
2022-11-06T01:22:00.440Z,7.10
2022-11-06T01:24:28.300Z,8.20
2022-11-06T01:29:44.228Z,8.30
2022-11-06T01:32:11.479Z,8.80
2022-11-06T01:34:38.592Z,7.30
2022-11-06T01:37:07.419Z,7.07
2022-11-06T01:39:36.252Z,7.23
2022-11-06T01:42:03.321Z,6.67
2022-11-06T01:44:49.050Z,6.60
2022-11-06T01:47:21.792Z,7.43
2022-11-06T01:49:49.673Z,6.40
2022-11-06T01:52:17.011Z,7.00
2022-11-06T01:54:45.992Z,7.60
2022-11-06T01:57:13.096Z,6.00
2022-11-06T01:59:42.801Z,5.83
2022-11-06T02:02:10.230Z,6.53
2022-11-06T02:04:41.187Z,6.53
2022-11-06T02:07:08.688Z,6.27
2022-11-06T02:09:36.091Z,6.60
2022-11-06T02:12:07.125Z,6.40
2022-11-06T02:14:39.451Z,6.10
2022-11-06T02:17:10.203Z,5.50
2022-11-06T02:19:47.951Z,6.00
2022-11-06T02:22:21.315Z,5.23
2022-11-06T02:25:13.552Z,5.50
2022-11-06T02:27:44.924Z,4.87
2022-11-06T02:30:12.819Z,4.90
2022-11-06T02:32:40.819Z,5.07
2022-11-06T02:35:13.914Z,5.43
2022-11-06T02:37:42.927Z,5.33
2022-11-06T02:40:11.673Z,5.07
2022-11-06T02:42:41.004Z,5.00
2022-11-06T02:45:11.000Z,4.80
2022-11-06T02:47:39.266Z,4.57
2022-11-06T02:50:08.715Z,6.13
2022-11-06T02:52:39.019Z,4.53
2022-11-06T02:55:08.439Z,5.57
2022-11-06T02:57:37.354Z,5.10
2022-11-06T03:00:06.170Z,4.70
2022-11-06T03:02:36.718Z,4.73
2022-11-06T03:05:06.437Z,4.50
2022-11-06T03:07:35.443Z,4.80
2022-11-06T03:10:02.856Z,5.00
2022-11-06T03:12:31.702Z,5.47
2022-11-06T03:15:00.782Z,4.80
2022-11-06T03:17:31.780Z,4.77
2022-11-06T03:20:04.456Z,5.47
2022-11-06T03:22:33.648Z,4.90
2022-11-06T03:25:04.527Z,5.40
2022-11-06T03:27:33.774Z,5.10
2022-11-06T03:30:01.856Z,5.40
2022-11-06T03:32:30.654Z,4.80
2022-11-06T03:35:01.376Z,4.70
2022-11-06T03:37:31.186Z,5.20
2022-11-06T03:39:59.609Z,5.00
2022-11-06T03:42:28.309Z,4.83
2022-11-06T03:44:57.442Z,4.60
2022-11-06T03:47:26.377Z,4.70
2022-11-06T03:49:55.056Z,5.20
2022-11-06T03:52:25.227Z,5.00
2022-11-06T03:54:56.276Z,4.63
2022-11-06T03:57:26.729Z,4.93
2022-11-06T03:59:56.509Z,4.40
2022-11-06T04:02:24.859Z,5.33
2022-11-06T04:04:53.891Z,4.30
2022-11-06T04:07:23.063Z,5.03
2022-11-06T04:09:51.900Z,4.63
2022-11-06T04:12:21.386Z,4.40
2022-11-06T04:14:50.713Z,4.10
2022-11-06T04:17:18.226Z,4.37
2022-11-06T04:19:47.711Z,5.30
2022-11-06T04:22:31.320Z,4.57
2022-11-06T04:25:04.159Z,4.90
2022-11-06T04:27:39.009Z,3.90
2022-11-06T04:30:07.936Z,4.13
2022-11-06T04:32:44.332Z,4.80
2022-11-06T04:35:14.506Z,4.33
2022-11-06T04:37:44.716Z,4.53
2022-11-06T04:40:14.640Z,4.20
2022-11-06T04:42:47.299Z,3.00
2022-11-06T04:45:17.306Z,4.00
2022-11-06T04:47:45.418Z,4.50
2022-11-06T04:50:12.743Z,3.70
2022-11-06T04:52:40.435Z,4.37
2022-11-06T04:55:07.829Z,4.17
2022-11-06T04:57:34.886Z,3.50
2022-11-06T05:00:03.451Z,4.13
2022-11-06T05:02:30.572Z,3.83
2022-11-06T05:04:57.711Z,3.40
2022-11-06T05:07:24.783Z,3.50
2022-11-06T05:09:51.877Z,3.67
2022-11-06T05:12:18.950Z,4.03
2022-11-06T05:14:46.064Z,3.87
2022-11-06T05:17:14.514Z,3.63
2022-11-06T05:19:41.619Z,3.23
2022-11-06T05:22:09.822Z,5.63
2022-11-06T05:24:36.893Z,5.53
2022-11-06T05:27:04.015Z,4.13
2022-11-06T05:29:31.112Z,4.00
2022-11-06T05:31:58.176Z,4.73
2022-11-06T05:34:26.634Z,4.07
2022-11-06T05:36:53.727Z,3.57
2022-11-06T05:39:20.829Z,3.77
2022-11-06T05:41:47.936Z,3.40
2022-11-06T05:44:15.089Z,3.90
2022-11-06T05:46:48.702Z,3.70
2022-11-06T05:49:17.044Z,3.10
2022-11-06T05:51:45.489Z,3.80
2022-11-06T05:54:12.610Z,4.13
2022-11-06T05:56:39.704Z,3.20
2022-11-06T05:59:06.766Z,3.27
2022-11-06T06:01:33.995Z,3.60
2022-11-06T06:04:01.156Z,3.53
2022-11-06T06:06:28.314Z,3.53
2022-11-06T06:08:56.739Z,3.60
2022-11-06T06:11:23.843Z,3.70
2022-11-06T06:13:50.900Z,3.87
2022-11-06T06:16:18.004Z,4.10
2022-11-06T06:18:45.103Z,3.87
2022-11-06T06:21:12.187Z,2.80
2022-11-06T06:23:39.263Z,3.90
2022-11-06T06:26:07.745Z,3.97
2022-11-06T06:28:34.815Z,3.60
2022-11-06T06:31:04.082Z,3.50
2022-11-06T06:33:31.413Z,3.50
2022-11-06T06:35:58.677Z,3.23
2022-11-06T06:38:25.764Z,3.97
2022-11-06T06:40:53.040Z,4.07
2022-11-06T06:43:21.474Z,3.47
2022-11-06T06:45:48.625Z,3.40
2022-11-06T06:48:16.227Z,3.90
2022-11-06T06:50:43.519Z,3.40
2022-11-06T06:53:10.589Z,4.20
2022-11-06T06:55:37.680Z,3.13
2022-11-06T06:58:04.806Z,3.37
2022-11-06T07:00:33.250Z,3.47
2022-11-06T07:03:01.883Z,3.63
2022-11-06T07:05:29.013Z,3.20
2022-11-06T07:07:56.116Z,4.13
2022-11-06T07:10:23.220Z,3.27
2022-11-06T07:12:50.314Z,3.20
2022-11-06T07:15:17.499Z,3.70
2022-11-06T07:17:45.943Z,3.70
2022-11-06T07:20:13.007Z,3.90
2022-11-06T07:22:40.095Z,3.40
2022-11-06T07:25:07.439Z,3.17
2022-11-06T07:27:34.510Z,3.47
2022-11-06T07:30:01.590Z,2.40
2022-11-06T07:32:29.091Z,3.20
2022-11-06T07:34:57.571Z,2.97
2022-11-06T07:37:24.633Z,2.90
2022-11-06T07:39:51.710Z,4.23
2022-11-06T07:42:18.809Z,3.33
2022-11-06T07:44:57.611Z,3.40
2022-11-06T07:47:24.715Z,2.93
2022-11-06T07:49:51.788Z,3.37
2022-11-06T07:52:20.311Z,2.40
2022-11-06T07:54:47.374Z,3.17
2022-11-06T07:57:14.481Z,2.60
2022-11-06T07:59:41.568Z,3.10
2022-11-06T08:02:11.148Z,2.70
2022-11-06T08:04:38.291Z,2.53
2022-11-06T08:07:05.535Z,3.13
2022-11-06T08:09:33.985Z,2.53
2022-11-06T08:12:01.046Z,2.70
2022-11-06T08:14:28.165Z,2.90
2022-11-06T08:16:55.238Z,2.63
2022-11-06T08:19:22.329Z,2.90
2022-11-06T08:21:49.425Z,2.80
2022-11-06T08:24:21.727Z,2.50
2022-11-06T08:26:50.666Z,3.40
2022-11-06T08:29:17.842Z,3.00
2022-11-06T08:31:44.939Z,2.73
2022-11-06T08:34:12.103Z,3.93
2022-11-06T08:36:40.134Z,3.30
2022-11-06T08:39:07.202Z,2.80
2022-11-06T08:41:34.340Z,2.80
2022-11-06T08:44:02.733Z,2.80
2022-11-06T08:46:29.872Z,2.60
2022-11-06T08:48:56.937Z,3.17
2022-11-06T08:51:24.033Z,2.97
2022-11-06T08:53:51.173Z,3.20
2022-11-06T08:56:18.293Z,3.50
2022-11-06T08:58:45.430Z,2.70
2022-11-06T09:01:13.940Z,3.20
2022-11-06T09:03:41.066Z,3.23
2022-11-06T09:06:08.475Z,2.67
2022-11-06T09:08:35.580Z,2.70
2022-11-06T09:11:05.339Z,2.97
2022-11-06T09:13:32.419Z,2.90
2022-11-06T09:16:00.345Z,3.10
2022-11-06T09:18:28.821Z,2.60
2022-11-06T09:20:55.905Z,2.50
2022-11-06T09:23:22.962Z,2.40
2022-11-06T09:25:50.161Z,2.40
2022-11-06T09:28:17.238Z,2.50
2022-11-06T09:30:44.379Z,2.50
2022-11-06T09:33:13.737Z,2.60
2022-11-06T09:35:42.427Z,3.17
2022-11-06T09:38:11.021Z,2.70
2022-11-06T09:40:39.916Z,2.53
2022-11-06T09:43:27.272Z,2.63
2022-11-06T09:46:06.570Z,2.50
2022-11-06T09:48:36.310Z,3.57
2022-11-06T09:51:08.604Z,2.70
2022-11-06T09:53:38.203Z,2.40
2022-11-06T09:56:06.233Z,2.33
2022-11-06T09:58:36.222Z,9.03
2022-11-06T10:01:09.798Z,3.20
2022-11-06T10:03:40.857Z,2.70
2022-11-06T10:06:09.312Z,2.30
2022-11-06T10:08:36.603Z,2.60
2022-11-06T10:11:04.556Z,2.63
2022-11-06T10:13:52.191Z,2.43
2022-11-06T10:16:22.578Z,2.50
2022-11-06T10:18:54.384Z,2.90
2022-11-06T10:21:25.277Z,2.80
2022-11-06T10:23:55.077Z,2.53
2022-11-06T10:26:27.615Z,2.30
2022-11-06T10:29:11.969Z,2.47
2022-11-06T10:31:46.022Z,2.27
2022-11-06T10:34:13.972Z,2.30
2022-11-06T10:36:49.521Z,2.20
2022-11-06T10:39:18.892Z,2.67
2022-11-06T10:41:49.486Z,3.20
2022-11-06T10:44:22.110Z,2.40
2022-11-06T10:46:50.355Z,3.10
2022-11-06T10:49:24.334Z,2.87
2022-11-06T10:52:06.315Z,2.23
2022-11-06T10:54:40.323Z,3.27
2022-11-06T10:57:13.964Z,2.50
2022-11-06T10:59:41.210Z,2.97
2022-11-06T11:02:17.073Z,2.23
2022-11-06T11:04:44.243Z,2.87
2022-11-06T11:07:17.653Z,2.83
2022-11-06T11:09:49.932Z,2.53
2022-11-06T11:12:21.214Z,2.27
2022-11-06T11:15:04.859Z,2.57
2022-11-06T11:17:32.012Z,2.60
2022-11-06T11:19:59.068Z,2.53
2022-11-06T11:22:31.974Z,2.47
2022-11-06T11:25:02.249Z,2.57
2022-11-06T11:27:29.785Z,2.73
2022-11-06T11:29:57.217Z,2.70
2022-11-06T11:32:24.915Z,3.07
2022-11-06T11:34:56.649Z,3.60
2022-11-06T11:37:25.439Z,3.13
2022-11-06T11:39:52.546Z,2.90
2022-11-06T11:42:25.797Z,3.03
2022-11-06T11:45:11.784Z,2.40
2022-11-06T11:47:39.722Z,2.80
2022-11-06T11:50:18.432Z,2.50
2022-11-06T11:52:46.198Z,3.43
2022-11-06T11:55:15.923Z,3.07
2022-11-06T11:57:45.897Z,2.40
2022-11-06T12:00:16.347Z,2.80
2022-11-06T12:02:44.271Z,2.60
2022-11-06T12:05:12.960Z,2.20
2022-11-06T12:07:46.234Z,2.77
2022-11-06T12:10:20.159Z,2.40
2022-11-06T12:12:50.690Z,2.83
2022-11-06T12:15:19.770Z,2.37
2022-11-06T12:17:50.112Z,3.23
2022-11-06T12:20:20.462Z,2.90
2022-11-06T12:22:49.054Z,2.27
2022-11-06T12:25:17.352Z,2.70
2022-11-06T12:27:46.942Z,2.87
2022-11-06T12:30:16.938Z,3.30
2022-11-06T12:32:52.807Z,3.80
2022-11-06T12:35:23.059Z,2.70
2022-11-06T12:37:55.943Z,3.13
2022-11-06T12:40:26.116Z,2.87
2022-11-06T12:42:58.463Z,3.20
2022-11-06T12:45:33.746Z,2.83
2022-11-06T12:48:05.310Z,3.60
2022-11-06T12:50:35.220Z,2.90
2022-11-06T12:53:11.083Z,2.50
2022-11-06T12:55:41.370Z,2.33
2022-11-06T12:58:26.162Z,3.37
2022-11-06T13:00:59.068Z,2.70
2022-11-06T13:03:35.787Z,3.20
2022-11-06T13:06:10.480Z,2.53
2022-11-06T13:08:41.857Z,2.83
2022-11-06T13:11:14.642Z,2.40
2022-11-06T13:13:48.027Z,2.60
2022-11-06T13:16:21.626Z,2.57
2022-11-06T13:18:53.405Z,2.47
2022-11-06T13:21:24.902Z,2.90
2022-11-06T13:23:54.521Z,2.50
2022-11-06T13:26:25.221Z,2.70
2022-11-06T13:28:53.686Z,2.60
2022-11-06T13:31:23.180Z,2.63
2022-11-06T13:33:51.780Z,2.50
2022-11-06T13:36:19.181Z,2.30
2022-11-06T13:38:48.672Z,2.00
2022-11-06T13:41:18.304Z,2.40
2022-11-06T13:43:46.814Z,2.93
2022-11-06T13:46:18.779Z,3.10
2022-11-06T13:48:50.668Z,2.30
2022-11-06T13:51:21.603Z,1.90
2022-11-06T13:53:58.425Z,2.50
2022-11-06T13:56:40.731Z,2.30
2022-11-06T13:59:15.645Z,1.60
2022-11-06T14:01:48.236Z,2.57
2022-11-06T14:04:36.399Z,2.20
2022-11-06T14:07:05.757Z,1.63
2022-11-06T14:09:35.090Z,2.00
2022-11-06T14:12:03.978Z,1.57
2022-11-06T14:14:32.258Z,1.90
2022-11-06T14:17:17.059Z,1.70
2022-11-06T14:20:00.598Z,2.03
2022-11-06T14:22:30.068Z,1.87
2022-11-06T14:25:01.602Z,1.70
2022-11-06T14:27:59.542Z,1.90
2022-11-06T14:31:10.472Z,1.67
2022-11-06T14:33:45.635Z,1.70
2022-11-06T14:36:13.685Z,1.70
2022-11-06T14:38:42.124Z,1.80
2022-11-06T14:41:27.804Z,1.80
2022-11-06T14:43:55.592Z,1.90
2022-11-06T14:46:23.805Z,1.50
2022-11-06T14:48:51.959Z,1.80
2022-11-06T14:51:25.612Z,2.00
2022-11-06T14:53:56.365Z,1.83
2022-11-06T14:56:25.035Z,1.70
2022-11-06T14:58:54.591Z,1.87
2022-11-06T15:01:26.746Z,2.30
2022-11-06T15:03:55.587Z,1.80
2022-11-06T15:06:35.482Z,2.27
2022-11-06T15:09:05.134Z,2.00
2022-11-06T15:11:50.807Z,1.70
2022-11-06T15:14:36.417Z,1.70
2022-11-06T15:17:04.401Z,1.47
2022-11-06T15:19:33.444Z,1.67
2022-11-06T15:22:03.725Z,1.63
2022-11-06T15:24:34.754Z,1.77
2022-11-06T15:27:05.522Z,1.80
2022-11-06T15:29:34.730Z,1.70
2022-11-06T15:32:05.309Z,1.80
2022-11-06T15:34:34.358Z,2.63
2022-11-06T15:37:08.609Z,2.13
2022-11-06T15:39:40.010Z,1.90
2022-11-06T15:42:10.840Z,1.60
2022-11-06T15:44:40.006Z,1.70
2022-11-06T15:47:07.207Z,1.60
2022-11-06T15:49:34.344Z,2.50
2022-11-06T15:52:01.914Z,1.80
2022-11-06T15:54:36.439Z,2.00
2022-11-06T15:57:06.506Z,2.03
2022-11-06T15:59:33.638Z,1.97
2022-11-06T16:02:04.706Z,2.27
2022-11-06T16:04:32.196Z,1.70
2022-11-06T16:07:01.462Z,2.10
2022-11-06T16:09:28.769Z,2.30
2022-11-06T16:11:56.355Z,2.47
2022-11-06T16:14:25.154Z,2.30
2022-11-06T16:16:53.192Z,2.00
2022-11-06T16:19:28.848Z,2.70
2022-11-06T16:21:57.786Z,2.10
2022-11-06T16:24:26.076Z,2.73
2022-11-06T16:26:53.394Z,2.20
2022-11-06T16:29:22.735Z,3.13
2022-11-06T16:31:58.695Z,2.60
2022-11-06T16:34:34.683Z,2.93
2022-11-06T16:37:02.496Z,2.70
2022-11-06T16:39:48.202Z,2.77
2022-11-06T16:42:23.610Z,3.30
2022-11-06T16:44:51.175Z,3.57
2022-11-06T16:47:20.050Z,3.47
2022-11-06T16:49:53.170Z,3.53
2022-11-06T16:52:25.826Z,3.20
2022-11-06T16:54:54.102Z,3.10
2022-11-06T16:57:22.586Z,3.10
2022-11-06T17:00:03.139Z,4.00
2022-11-06T17:02:33.006Z,2.83
2022-11-06T17:05:11.382Z,3.30
2022-11-06T17:07:39.025Z,3.07
2022-11-06T17:10:24.816Z,3.13
2022-11-06T17:12:52.028Z,2.90
2022-11-06T17:15:19.062Z,3.70
2022-11-06T17:17:49.787Z,3.00
2022-11-06T17:20:18.113Z,2.93
2022-11-06T17:22:45.220Z,2.93
2022-11-06T17:25:12.406Z,3.33
2022-11-06T17:27:39.493Z,3.27
2022-11-06T17:30:07.036Z,3.37
2022-11-06T17:32:34.102Z,3.10
2022-11-06T17:35:02.531Z,3.03
2022-11-06T17:37:29.688Z,3.20
2022-11-06T17:39:56.755Z,2.90
2022-11-06T17:42:23.818Z,3.35
2022-11-06T17:44:50.898Z,3.30
2022-11-06T17:47:17.999Z,3.87
2022-11-06T17:49:45.071Z,4.20
2022-11-06T17:52:13.492Z,3.60
2022-11-06T17:54:40.568Z,3.23
2022-11-06T17:57:08.473Z,3.20
2022-11-06T17:59:35.951Z,3.70
2022-11-06T18:02:03.163Z,3.50
2022-11-06T18:04:30.850Z,4.07
2022-11-06T18:06:57.995Z,3.57
2022-11-06T18:09:26.841Z,4.57
2022-11-06T18:11:54.720Z,4.47
2022-11-06T18:14:22.148Z,4.03
2022-11-06T18:16:49.561Z,4.70
2022-11-06T18:19:17.510Z,4.40
2022-11-06T18:21:45.695Z,5.10
2022-11-06T18:24:12.790Z,4.37
2022-11-06T18:26:41.277Z,4.00
2022-11-06T18:29:08.925Z,4.23
2022-11-06T18:31:36.057Z,3.97
2022-11-06T18:34:03.604Z,4.07
2022-11-06T18:36:32.154Z,5.00
2022-11-06T18:38:59.207Z,4.50
2022-11-06T18:41:26.273Z,4.03
2022-11-06T18:43:57.367Z,4.27
2022-11-06T18:46:24.850Z,4.43
2022-11-06T18:48:51.936Z,4.83
2022-11-06T18:51:33.427Z,4.30
2022-11-06T18:54:02.917Z,4.50
2022-11-06T18:56:29.997Z,3.83
2022-11-06T18:58:58.411Z,4.30
2022-11-06T19:01:25.675Z,4.30
2022-11-06T19:03:52.853Z,4.50
2022-11-06T19:06:20.905Z,4.47
2022-11-06T19:08:48.457Z,4.80
2022-11-06T19:11:16.323Z,4.63
2022-11-06T19:13:47.611Z,3.43
2022-11-06T19:16:17.415Z,4.10
2022-11-06T19:18:44.516Z,3.83
2022-11-06T19:21:11.998Z,3.90
2022-11-06T19:23:40.064Z,3.73
2022-11-06T19:26:29.442Z,3.70
2022-11-06T19:28:54.700Z,3.63
2022-11-06T19:31:23.111Z,4.30
2022-11-06T19:33:50.609Z,3.20
2022-11-06T19:36:17.688Z,4.40
2022-11-06T19:38:44.743Z,2.77
2022-11-06T19:41:11.909Z,2.60
2022-11-06T19:43:38.992Z,3.40
2022-11-06T19:46:06.350Z,2.80
2022-11-06T19:48:35.334Z,2.93
2022-11-06T19:51:02.813Z,3.57
2022-11-06T19:53:29.876Z,3.30
2022-11-06T19:55:56.961Z,3.10
2022-11-06T19:58:24.044Z,2.77
2022-11-06T20:00:51.136Z,3.00
2022-11-06T20:03:18.231Z,2.70
2022-11-06T20:05:46.681Z,3.43
2022-11-06T20:08:14.173Z,2.60
2022-11-06T20:10:41.264Z,3.00
2022-11-06T20:13:08.786Z,2.67
2022-11-06T20:15:35.890Z,2.70
2022-11-06T20:18:02.977Z,2.53
2022-11-06T20:20:35.760Z,2.30
2022-11-06T20:23:04.827Z,2.57
2022-11-06T20:25:31.894Z,2.80
2022-11-06T20:27:58.995Z,2.70
2022-11-06T20:30:26.078Z,2.40
2022-11-06T20:32:53.161Z,2.60
2022-11-06T20:35:20.296Z,3.10
2022-11-06T20:37:47.371Z,2.70
2022-11-06T20:40:15.800Z,2.10
2022-11-06T20:42:42.898Z,2.67
2022-11-06T20:45:10.314Z,2.67
2022-11-06T20:47:37.434Z,2.80
2022-11-06T20:50:04.673Z,2.57
2022-11-06T20:52:31.767Z,2.57
2022-11-06T20:54:58.845Z,2.40
2022-11-06T20:57:27.294Z,2.23
2022-11-06T20:59:54.442Z,2.30
2022-11-06T21:02:21.667Z,2.30
2022-11-06T21:04:48.847Z,2.67
2022-11-06T21:07:15.947Z,2.97
2022-11-06T21:09:43.020Z,1.90
2022-11-06T21:12:10.131Z,2.20
2022-11-06T21:14:38.565Z,2.33
2022-11-06T21:17:05.696Z,2.40
2022-11-06T21:19:35.768Z,2.60
2022-11-06T21:22:02.874Z,2.57
2022-11-06T21:24:29.967Z,2.10
2022-11-06T21:26:58.253Z,2.50
2022-11-06T21:29:25.940Z,2.23
2022-11-06T21:31:54.387Z,2.40
2022-11-06T21:34:21.771Z,2.47
2022-11-06T21:36:49.111Z,1.87
2022-11-06T21:39:17.307Z,2.30
2022-11-06T21:41:44.630Z,2.13
2022-11-06T21:44:13.677Z,2.30
2022-11-06T21:46:45.046Z,2.70
2022-11-06T21:49:14.051Z,2.67
2022-11-06T21:51:41.303Z,2.50
2022-11-06T21:54:10.003Z,2.27
2022-11-06T21:56:37.704Z,2.33
2022-11-06T21:59:05.456Z,2.90
2022-11-06T22:01:32.963Z,2.37
2022-11-06T22:04:00.199Z,2.40
2022-11-06T22:06:29.265Z,2.10
2022-11-06T22:08:57.329Z,2.23
2022-11-06T22:11:25.383Z,2.53
2022-11-06T22:13:53.073Z,2.50
2022-11-06T22:16:21.203Z,2.20
2022-11-06T22:18:48.326Z,2.30
2022-11-06T22:21:16.368Z,2.03
2022-11-06T22:23:44.984Z,2.00
2022-11-06T22:26:13.059Z,2.03
2022-11-06T22:28:40.602Z,1.70
2022-11-06T22:31:07.805Z,2.40
2022-11-06T22:33:35.783Z,2.83
2022-11-06T22:36:03.432Z,1.80
2022-11-06T22:38:30.637Z,2.20
2022-11-06T22:40:59.589Z,1.73
2022-11-06T22:43:27.135Z,1.67
2022-11-06T22:45:58.371Z,2.10
2022-11-06T22:48:25.560Z,1.40
2022-11-06T22:50:52.675Z,1.90
2022-11-06T22:53:20.031Z,1.90
2022-11-06T22:55:47.365Z,1.90
2022-11-06T22:58:15.804Z,1.90
2022-11-06T23:00:42.892Z,1.77
2022-11-06T23:03:10.069Z,2.60
2022-11-06T23:05:39.236Z,1.80
2022-11-06T23:08:06.391Z,1.70
2022-11-06T23:10:33.508Z,2.10
2022-11-06T23:13:00.611Z,2.40
2022-11-06T23:15:29.057Z,1.90
2022-11-06T23:17:56.141Z,1.70
2022-11-06T23:20:23.254Z,1.60
2022-11-06T23:22:50.368Z,1.97
2022-11-06T23:25:17.696Z,1.90
2022-11-06T23:27:49.584Z,1.57
2022-11-06T23:30:17.175Z,1.70
2022-11-06T23:32:45.932Z,1.43
2022-11-06T23:35:16.044Z,1.93
2022-11-06T23:37:44.047Z,1.80
2022-11-06T23:40:11.690Z,1.57
2022-11-06T23:42:38.951Z,1.60
2022-11-06T23:45:06.601Z,1.67
2022-11-06T23:47:34.072Z,1.60
2022-11-06T23:50:02.450Z,1.80
2022-11-06T23:52:29.538Z,1.63
2022-11-06T23:54:56.766Z,1.40
2022-11-06T23:57:23.861Z,1.97
2022-11-06T23:59:50.953Z,1.70
